createdAt,value
2023-04-16T00:00:55.993Z,69.00
2023-04-16T00:03:23.557Z,69.80
2023-04-16T00:05:50.673Z,69.00
2023-04-16T00:08:17.504Z,69.00
2023-04-16T00:10:44.611Z,69.00
2023-04-16T00:13:11.625Z,69.00
2023-04-16T00:15:39.966Z,69.10
2023-04-16T00:18:06.972Z,69.00
2023-04-16T00:20:33.933Z,69.10
2023-04-16T00:23:00.976Z,69.10
2023-04-16T00:25:28.070Z,69.10
2023-04-16T00:27:55.184Z,69.10
2023-04-16T00:30:22.528Z,69.10
2023-04-16T00:32:50.897Z,69.10
2023-04-16T00:35:18.016Z,69.20
2023-04-16T00:37:44.861Z,69.20
2023-04-16T00:40:12.211Z,69.20
2023-04-16T00:42:39.275Z,69.20
2023-04-16T00:45:07.254Z,69.20
2023-04-16T00:47:34.380Z,69.20
2023-04-16T00:50:02.986Z,69.30
2023-04-16T00:52:30.181Z,69.30
2023-04-16T00:54:57.215Z,69.30
2023-04-16T00:57:24.154Z,69.40
2023-04-16T00:59:51.058Z,69.40
2023-04-16T01:02:18.108Z,69.40
2023-04-16T01:04:45.031Z,69.40
2023-04-16T01:07:13.230Z,69.30
2023-04-16T01:09:40.090Z,69.50
2023-04-16T01:12:06.922Z,69.40
2023-04-16T01:14:33.789Z,69.40
2023-04-16T01:17:00.655Z,69.50
2023-04-16T01:19:27.508Z,69.40
2023-04-16T01:21:55.725Z,69.40
2023-04-16T01:24:22.606Z,69.40
2023-04-16T01:26:49.453Z,69.50
2023-04-16T01:29:16.320Z,69.50
2023-04-16T01:31:43.275Z,69.60
2023-04-16T01:34:10.143Z,69.60
2023-04-16T01:36:36.981Z,69.60
2023-04-16T01:39:05.234Z,69.60
2023-04-16T01:41:32.195Z,69.60
2023-04-16T01:43:59.054Z,69.70
2023-04-16T01:46:28.078Z,69.60
2023-04-16T01:48:54.975Z,69.60
2023-04-16T01:51:21.878Z,69.70
2023-04-16T01:53:49.548Z,69.60
2023-04-16T01:56:17.795Z,69.70
2023-04-16T01:58:44.686Z,69.70
2023-04-16T02:01:11.689Z,69.70
2023-04-16T02:03:38.825Z,69.70
2023-04-16T02:06:05.829Z,69.70
2023-04-16T02:08:32.698Z,69.80
2023-04-16T02:11:00.960Z,69.80
2023-04-16T02:13:29.450Z,69.80
2023-04-16T02:15:56.338Z,69.80
2023-04-16T02:18:23.251Z,69.80
2023-04-16T02:20:50.129Z,69.80
2023-04-16T02:23:17.021Z,69.80
2023-04-16T02:25:44.811Z,69.90
2023-04-16T02:28:12.463Z,69.90
2023-04-16T02:30:40.798Z,69.90
2023-04-16T02:33:08.378Z,69.90
2023-04-16T02:35:35.253Z,69.90
2023-04-16T02:38:02.460Z,69.90
2023-04-16T02:40:29.380Z,69.90
2023-04-16T02:42:56.242Z,70.70
2023-04-16T02:45:23.186Z,70.00
2023-04-16T02:47:51.450Z,70.00
2023-04-16T02:50:18.507Z,70.00
2023-04-16T02:52:45.427Z,70.00
2023-04-16T02:55:12.354Z,70.10
2023-04-16T02:57:39.229Z,70.10
2023-04-16T03:00:07.428Z,70.10
2023-04-16T03:02:34.347Z,70.10
2023-04-16T03:05:02.788Z,70.10
2023-04-16T03:07:29.669Z,70.10
2023-04-16T03:09:56.556Z,70.10
2023-04-16T03:12:23.420Z,70.20
2023-04-16T03:14:50.853Z,70.20
2023-04-16T03:17:17.787Z,70.20
2023-04-16T03:19:44.690Z,70.30
2023-04-16T03:22:12.984Z,70.20
2023-04-16T03:24:39.901Z,70.30
2023-04-16T03:27:06.738Z,70.30
2023-04-16T03:29:33.629Z,70.30
2023-04-16T03:32:00.487Z,70.20
2023-04-16T03:34:27.316Z,70.30
2023-04-16T03:36:54.162Z,70.30
2023-04-16T03:39:22.399Z,70.30
2023-04-16T03:41:49.273Z,70.30
2023-04-16T03:44:16.121Z,70.40
2023-04-16T03:46:42.993Z,70.30
2023-04-16T03:49:10.032Z,70.40
2023-04-16T03:51:36.955Z,70.40
2023-04-16T03:54:03.952Z,70.40
2023-04-16T03:56:32.198Z,70.40
2023-04-16T03:58:59.070Z,70.40
2023-04-16T04:01:25.909Z,70.40
2023-04-16T04:03:52.930Z,70.40
2023-04-16T04:06:19.894Z,70.40
2023-04-16T04:08:46.764Z,70.40
2023-04-16T04:11:13.626Z,70.40
2023-04-16T04:13:41.963Z,70.40
2023-04-16T04:16:08.858Z,70.40
2023-04-16T04:18:35.772Z,70.40
2023-04-16T04:21:05.819Z,70.50
2023-04-16T04:23:32.683Z,70.50
2023-04-16T04:25:59.590Z,70.50
2023-04-16T04:28:26.457Z,70.60
2023-04-16T04:30:54.701Z,70.50
2023-04-16T04:33:21.587Z,70.60
2023-04-16T04:35:48.450Z,70.50
2023-04-16T04:38:16.209Z,70.60
2023-04-16T04:40:43.168Z,70.60
2023-04-16T04:43:10.030Z,70.50
2023-04-16T04:45:36.930Z,70.60
2023-04-16T04:48:05.429Z,70.60
2023-04-16T04:50:32.353Z,70.60
2023-04-16T04:52:59.219Z,70.60
2023-04-16T04:55:26.169Z,70.60
2023-04-16T04:57:53.023Z,70.60
2023-04-16T05:00:19.929Z,70.60
2023-04-16T05:02:46.918Z,70.60
2023-04-16T05:05:15.281Z,70.60
2023-04-16T05:07:42.161Z,70.60
2023-04-16T05:10:09.776Z,70.60
2023-04-16T05:12:36.651Z,70.60
2023-04-16T05:15:03.732Z,70.60
2023-04-16T05:17:30.615Z,70.70
2023-04-16T05:19:57.519Z,70.70
2023-04-16T05:22:25.747Z,70.60
2023-04-16T05:24:52.616Z,70.60
2023-04-16T05:27:19.462Z,70.60
2023-04-16T05:29:46.338Z,70.70
2023-04-16T05:32:13.232Z,70.60
2023-04-16T05:34:40.090Z,70.50
2023-04-16T05:37:06.956Z,70.50
2023-04-16T05:39:35.198Z,70.60
2023-04-16T05:42:02.058Z,70.60
2023-04-16T05:44:28.913Z,70.70
2023-04-16T05:46:55.771Z,70.70
2023-04-16T05:49:22.634Z,71.40
2023-04-16T05:51:50.831Z,72.00
2023-04-16T05:54:17.936Z,72.20
2023-04-16T05:56:46.209Z,72.30
2023-04-16T05:59:13.053Z,72.40
2023-04-16T06:01:39.900Z,72.50
2023-04-16T06:04:06.895Z,72.70
2023-04-16T06:06:33.841Z,73.00
2023-04-16T06:09:00.705Z,73.00
2023-04-16T06:11:27.592Z,73.10
2023-04-16T06:13:55.841Z,72.90
2023-04-16T06:16:22.744Z,73.00
2023-04-16T06:18:49.625Z,73.20
2023-04-16T06:21:16.487Z,73.50
2023-04-16T06:23:43.324Z,73.50
2023-04-16T06:26:11.092Z,73.70
2023-04-16T06:28:37.930Z,73.80
2023-04-16T06:31:06.226Z,73.90
2023-04-16T06:33:33.131Z,74.10
2023-04-16T06:35:59.975Z,74.00
2023-04-16T06:38:26.852Z,74.00
2023-04-16T06:40:53.736Z,73.80
2023-04-16T06:43:20.602Z,73.80
2023-04-16T06:45:47.462Z,73.60
2023-04-16T06:48:15.742Z,73.40
2023-04-16T06:50:42.629Z,73.40
2023-04-16T06:53:09.472Z,73.00
2023-04-16T06:55:36.315Z,72.80
2023-04-16T06:58:03.226Z,72.60
2023-04-16T07:00:30.078Z,72.40
2023-04-16T07:02:58.600Z,72.40
2023-04-16T07:05:27.042Z,72.20
2023-04-16T07:07:53.918Z,73.00
2023-04-16T07:10:20.780Z,72.20
2023-04-16T07:12:47.635Z,72.10
2023-04-16T07:15:14.554Z,72.10
2023-04-16T07:17:41.417Z,72.10
2023-04-16T07:20:09.391Z,72.10
2023-04-16T07:22:37.642Z,72.00
2023-04-16T07:25:05.059Z,71.90
2023-04-16T07:27:31.920Z,71.90
2023-04-16T07:29:58.818Z,71.80
2023-04-16T07:32:25.725Z,71.70
2023-04-16T07:34:52.625Z,71.70
2023-04-16T07:37:19.525Z,71.70
2023-04-16T07:39:47.751Z,71.70
2023-04-16T07:42:14.620Z,71.60
2023-04-16T07:44:41.475Z,71.60
2023-04-16T07:47:08.347Z,71.40
2023-04-16T07:49:35.198Z,71.50
2023-04-16T07:52:02.321Z,71.40
2023-04-16T07:54:29.312Z,71.40
2023-04-16T07:56:57.588Z,71.40
2023-04-16T07:59:24.731Z,71.30
2023-04-16T08:01:52.792Z,71.30
2023-04-16T08:04:19.833Z,71.30
2023-04-16T08:06:46.799Z,71.20
2023-04-16T08:09:13.632Z,71.20
2023-04-16T08:11:40.457Z,71.20
2023-04-16T08:14:08.699Z,71.20
2023-04-16T08:16:35.565Z,71.10
2023-04-16T08:19:02.438Z,71.20
2023-04-16T08:21:29.301Z,71.10
2023-04-16T08:23:56.186Z,71.00
2023-04-16T08:26:23.067Z,71.00
2023-04-16T08:28:49.936Z,71.00
2023-04-16T08:31:18.220Z,71.00
2023-04-16T08:33:45.114Z,70.90
2023-04-16T08:36:11.969Z,70.90
2023-04-16T08:38:38.811Z,70.80
2023-04-16T08:41:06.893Z,70.80
2023-04-16T08:43:34.452Z,70.80
2023-04-16T08:46:01.307Z,70.80
2023-04-16T08:48:29.682Z,70.80
2023-04-16T08:50:56.551Z,70.80
2023-04-16T08:53:24.707Z,70.80
2023-04-16T08:55:51.567Z,70.80
2023-04-16T08:58:19.352Z,70.80
2023-04-16T09:00:46.339Z,70.70
2023-04-16T09:03:13.317Z,70.70
2023-04-16T09:05:41.884Z,70.70
2023-04-16T09:08:08.861Z,70.70
2023-04-16T09:10:35.724Z,70.70
2023-04-16T09:13:02.589Z,70.70
2023-04-16T21:04:59.471Z,73.60
2023-04-16T21:07:26.351Z,73.80
2023-04-16T21:09:53.217Z,73.80
2023-04-16T21:12:20.089Z,73.70
